createdAt,value
2018-04-14T00:01:20.915Z,89.06
2018-04-14T00:03:49.280Z,89.29
2018-04-14T00:06:18.444Z,89.41
2018-04-14T00:08:47.365Z,89.82
2018-04-14T00:11:16.510Z,89.97
2018-04-14T00:13:45.227Z,90.33
2018-04-14T00:16:14.764Z,90.27
2018-04-14T00:18:44.275Z,90.14
2018-04-14T00:21:13.475Z,90.42
2018-04-14T00:23:41.895Z,90.35
2018-04-14T00:26:10.301Z,90.92
2018-04-14T00:28:39.645Z,90.71
2018-04-14T00:31:08.090Z,90.51
2018-04-14T00:33:36.480Z,90.70
2018-04-14T00:36:04.864Z,90.44
2018-04-14T00:38:33.247Z,90.29
2018-04-14T00:41:02.576Z,90.39
2018-04-14T00:43:30.994Z,90.75
2018-04-14T00:45:59.958Z,90.39
2018-04-14T00:48:28.692Z,90.13
2018-04-14T00:50:57.026Z,90.07
2018-04-14T00:53:37.066Z,89.92
2018-04-14T00:56:05.421Z,90.44
2018-04-14T00:58:33.831Z,90.05
2018-04-14T01:01:03.718Z,90.17
2018-04-14T01:03:32.366Z,90.05
2018-04-14T01:06:00.747Z,90.25
2018-04-14T01:08:29.128Z,90.32
2018-04-14T01:10:58.159Z,90.80
2018-04-14T01:13:27.790Z,90.47
2018-04-14T01:15:56.447Z,90.49
2018-04-14T01:18:25.009Z,90.92
2018-04-14T01:20:53.365Z,91.12
2018-04-14T01:23:23.250Z,91.02
2018-04-14T01:25:51.850Z,90.79
2018-04-14T01:28:21.074Z,90.38
2018-04-14T01:30:49.612Z,91.01
2018-04-14T01:33:18.053Z,90.77
2018-04-14T01:35:46.996Z,90.69
2018-04-14T01:38:15.379Z,90.93
2018-04-14T01:40:43.775Z,91.48
2018-04-14T01:43:12.140Z,90.95
2018-04-14T01:45:40.493Z,91.13
2018-04-14T01:48:08.903Z,90.97
2018-04-14T01:50:38.512Z,90.83
2018-04-14T01:53:06.928Z,91.40
2018-04-14T01:55:35.293Z,91.73
2018-04-14T01:58:04.345Z,91.65
2018-04-14T02:00:32.726Z,91.91
2018-04-14T02:03:01.095Z,91.63
2018-04-14T02:05:29.491Z,91.78
2018-04-14T02:07:57.874Z,91.28
2018-04-14T02:10:26.205Z,91.28
2018-04-14T02:12:54.570Z,91.14
2018-04-14T02:15:24.169Z,91.13
2018-04-14T02:17:52.582Z,91.25
2018-04-14T02:20:21.194Z,91.02
2018-04-14T02:22:49.640Z,91.14
2018-04-14T02:25:17.979Z,91.34
2018-04-14T02:27:46.523Z,91.42
2018-04-14T02:30:14.853Z,91.00
2018-04-14T02:32:43.200Z,90.69
2018-04-14T02:35:11.594Z,90.60
2018-04-14T02:37:39.948Z,90.60
2018-04-14T02:40:08.559Z,89.97
2018-04-14T02:42:37.812Z,89.50
2018-04-14T02:45:06.189Z,89.46
2018-04-14T02:47:34.579Z,89.83
2018-04-14T02:50:02.933Z,90.04
2018-04-14T02:52:33.418Z,90.09
2018-04-14T02:55:03.209Z,90.12
2018-04-14T02:57:31.892Z,90.04
2018-04-14T03:00:00.274Z,90.11
2018-04-14T03:02:28.626Z,89.96
2018-04-14T03:04:56.997Z,89.62
2018-04-14T03:07:25.976Z,89.51
2018-04-14T03:09:55.284Z,89.81
2018-04-14T03:12:23.614Z,89.87
2018-04-14T03:14:52.504Z,89.99
2018-04-14T03:17:21.204Z,89.55
2018-04-14T03:19:50.299Z,89.53
2018-04-14T03:22:19.008Z,89.43
2018-04-14T03:24:48.188Z,89.37
2018-04-14T03:27:16.536Z,89.41
2018-04-14T03:29:44.933Z,90.02
2018-04-14T03:32:13.432Z,89.76
2018-04-14T03:34:42.653Z,89.72
2018-04-14T03:37:11.096Z,89.36
2018-04-14T03:39:40.087Z,88.89
2018-04-14T03:42:09.005Z,89.87
2018-04-14T03:44:38.837Z,89.68
2018-04-14T03:47:07.308Z,89.17
2018-04-14T03:49:35.708Z,89.08
2018-04-14T03:52:04.041Z,89.54
2018-04-14T03:54:32.423Z,89.32
2018-04-14T03:57:01.862Z,89.01
2018-04-14T03:59:31.198Z,89.41
2018-04-14T04:01:59.545Z,89.74
2018-04-14T04:04:29.462Z,89.37
2018-04-14T04:06:58.578Z,89.62
2018-04-14T04:09:26.944Z,89.46
2018-04-14T04:11:55.324Z,89.53
2018-04-14T04:14:23.716Z,89.55
2018-04-14T04:16:52.936Z,89.88
2018-04-14T04:19:33.687Z,90.27
2018-04-14T04:22:14.261Z,90.82
2018-04-14T04:24:54.299Z,89.95
2018-04-14T04:27:22.345Z,90.36
2018-04-14T04:29:51.081Z,90.46
2018-04-14T04:32:19.407Z,90.31
2018-04-14T04:34:47.492Z,90.01
2018-04-14T04:37:15.638Z,90.15
2018-04-14T04:39:45.296Z,90.52
2018-04-14T04:42:14.288Z,90.35
2018-04-14T04:44:44.199Z,90.37
2018-04-14T04:47:13.169Z,90.53
2018-04-14T04:49:41.986Z,90.59
2018-04-14T04:52:10.216Z,90.61
2018-04-14T04:54:38.527Z,90.88
2018-04-14T04:57:07.513Z,90.77
2018-04-14T04:59:35.592Z,91.06
2018-04-14T05:02:05.228Z,90.63
2018-04-14T05:04:34.243Z,90.52
2018-04-14T05:07:03.191Z,90.54
2018-04-14T05:09:31.284Z,90.49
2018-04-14T05:11:59.353Z,90.08
2018-04-14T05:14:27.841Z,89.84
2018-04-14T05:16:56.313Z,89.78
2018-04-14T05:19:26.096Z,90.12
2018-04-14T05:21:54.877Z,90.23
2018-04-14T05:24:22.987Z,90.22
2018-04-14T05:26:51.273Z,90.01
2018-04-14T05:29:19.341Z,90.14
2018-04-14T05:31:48.206Z,90.47
2018-04-14T05:34:16.601Z,89.97
2018-04-14T05:36:44.675Z,89.63
2018-04-14T05:39:12.875Z,90.32
2018-04-14T05:41:40.930Z,90.26
2018-04-14T05:44:09.520Z,90.25
2018-04-14T05:46:38.792Z,90.33
2018-04-14T05:49:07.147Z,90.52
2018-04-14T05:51:35.775Z,91.12
2018-04-14T05:54:04.577Z,91.18
2018-04-14T05:56:32.642Z,90.96
2018-04-14T05:59:01.866Z,91.03
2018-04-14T06:01:29.961Z,91.11
2018-04-14T06:03:58.869Z,90.60
2018-04-14T06:06:26.989Z,90.67
2018-04-14T06:08:55.085Z,91.18
2018-04-14T06:11:23.198Z,90.20
2018-04-14T06:13:52.119Z,90.14
2018-04-14T06:16:20.397Z,90.63
2018-04-14T06:18:48.468Z,90.09
2018-04-14T06:21:16.678Z,89.97
2018-04-14T06:23:44.752Z,90.15
2018-04-14T06:26:13.145Z,90.18
2018-04-14T06:28:41.458Z,90.05
2018-04-14T06:31:10.724Z,89.97
2018-04-14T06:33:38.811Z,90.14
2018-04-14T06:36:06.884Z,89.97
2018-04-14T06:38:34.955Z,89.84
2018-04-14T06:41:03.603Z,89.99
2018-04-14T06:43:32.760Z,89.35
2018-04-14T06:46:01.474Z,89.93
2018-04-14T06:48:29.543Z,89.46
2018-04-14T06:50:57.619Z,89.22
2018-04-14T06:53:25.805Z,89.04
2018-04-14T06:55:53.895Z,88.74
2018-04-14T06:58:23.452Z,89.79
2018-04-14T07:00:51.577Z,89.39
2018-04-14T07:03:19.638Z,88.99
2018-04-14T07:05:47.804Z,88.61
2018-04-14T07:08:16.284Z,88.21
2018-04-14T07:10:44.422Z,88.26
2018-04-14T07:13:12.961Z,88.13
2018-04-14T07:15:42.278Z,88.52
2018-04-14T07:18:10.397Z,88.83
2018-04-14T07:20:39.449Z,89.17
2018-04-14T07:23:08.281Z,89.70
2018-04-14T07:25:37.167Z,89.00
2018-04-14T07:28:05.230Z,89.01
2018-04-14T07:30:34.111Z,89.07
2018-04-14T07:33:02.315Z,88.73
2018-04-14T07:35:30.551Z,88.18
2018-04-14T07:37:58.619Z,88.27
2018-04-14T07:40:27.244Z,88.20
2018-04-14T07:42:55.367Z,87.74
2018-04-14T07:45:23.540Z,87.86
2018-04-14T07:47:52.462Z,86.93
2018-04-14T07:50:20.600Z,86.55
2018-04-14T07:52:48.709Z,86.77
2018-04-14T07:55:16.801Z,86.63
2018-04-14T07:57:45.628Z,85.33
2018-04-14T08:00:13.793Z,85.87
2018-04-14T08:02:41.888Z,86.52
2018-04-14T08:05:10.046Z,86.44
2018-04-14T08:07:38.467Z,86.41
2018-04-14T08:10:06.552Z,86.56
2018-04-14T08:12:34.601Z,85.98
2018-04-14T08:15:02.732Z,86.41
2018-04-14T08:17:30.798Z,85.87
2018-04-14T08:19:58.926Z,85.09
2018-04-14T08:22:27.250Z,85.64
2018-04-14T08:24:55.321Z,86.17
2018-04-14T08:27:23.398Z,85.80
2018-04-14T08:29:52.085Z,85.38
2018-04-14T08:32:20.140Z,85.39
2018-04-14T08:34:48.220Z,84.94
2018-04-14T08:37:16.313Z,84.71
2018-04-14T08:39:44.415Z,83.99
2018-04-14T08:42:14.247Z,83.87
2018-04-14T08:44:42.569Z,83.84
2018-04-14T08:47:10.871Z,83.23
2018-04-14T08:49:39.718Z,83.54
2018-04-14T08:52:07.956Z,82.61
2018-04-14T08:54:36.243Z,82.16
2018-04-14T08:57:05.285Z,80.97
2018-04-14T08:59:34.184Z,80.49
2018-04-14T09:02:02.298Z,80.36
2018-04-14T09:04:30.703Z,78.63
2018-04-14T09:06:59.179Z,78.79
2018-04-14T09:09:27.254Z,79.13
2018-04-14T09:11:55.453Z,78.49
2018-04-14T09:14:24.812Z,78.49
2018-04-14T09:16:53.880Z,77.50
2018-04-14T09:19:23.287Z,78.55
2018-04-14T09:21:51.895Z,77.40
2018-04-14T09:24:20.255Z,77.79
2018-04-14T09:26:48.594Z,77.63
2018-04-14T09:29:17.422Z,77.67
2018-04-14T09:31:45.796Z,78.31
2018-04-14T09:34:15.170Z,77.95
2018-04-14T09:36:44.099Z,78.18
2018-04-14T09:39:13.285Z,77.40
2018-04-14T09:41:41.803Z,76.11
2018-04-14T09:44:11.271Z,74.39
2018-04-14T09:46:40.907Z,72.85
2018-04-14T09:49:09.254Z,72.10
2018-04-14T09:51:39.072Z,72.53
2018-04-14T09:54:07.656Z,71.09
2018-04-14T09:56:36.009Z,70.85
2018-04-14T09:59:05.260Z,71.16
2018-04-14T10:01:34.187Z,69.91
2018-04-14T10:04:03.450Z,69.02
2018-04-14T10:06:32.129Z,69.73
2018-04-14T10:09:01.184Z,70.45
2018-04-14T10:11:31.359Z,68.82
2018-04-14T10:14:00.067Z,69.08
2018-04-14T10:16:28.469Z,69.44
2018-04-14T10:18:56.889Z,68.67
2018-04-14T10:21:25.262Z,68.39
2018-04-14T10:23:53.668Z,67.82
2018-04-14T10:26:22.036Z,66.06
2018-04-14T10:28:50.383Z,65.76
2018-04-14T10:31:19.469Z,65.60
2018-04-14T10:33:48.537Z,64.64
2018-04-14T10:36:16.950Z,65.23
2018-04-14T10:38:46.157Z,65.00
2018-04-14T10:41:14.526Z,63.73
2018-04-14T10:43:44.026Z,62.92
2018-04-14T10:46:12.442Z,63.19
2018-04-14T10:48:40.806Z,61.09
2018-04-14T10:51:09.660Z,61.19
2018-04-14T10:53:38.734Z,60.25
2018-04-14T10:56:08.587Z,60.40
2018-04-14T10:58:37.562Z,60.26
2018-04-14T11:01:07.125Z,59.11
2018-04-14T11:03:35.723Z,59.19
2018-04-14T11:06:04.174Z,57.96
2018-04-14T11:08:33.962Z,57.63
2018-04-14T11:11:03.167Z,57.87
2018-04-14T11:13:31.507Z,56.95
2018-04-14T11:16:00.516Z,55.94
2018-04-14T11:18:30.041Z,56.01
2018-04-14T11:20:59.129Z,56.94
2018-04-14T11:23:27.487Z,54.73
2018-04-14T11:25:56.797Z,56.02
2018-04-14T11:28:25.768Z,53.98
2018-04-14T11:30:54.119Z,55.23
2018-04-14T11:33:22.428Z,53.14
2018-04-14T11:35:50.779Z,52.61
2018-04-14T11:38:19.157Z,51.64
2018-04-14T11:40:47.545Z,51.06
2018-04-14T11:43:17.299Z,50.81
2018-04-14T11:45:45.692Z,50.93
2018-04-14T11:48:14.079Z,50.92
2018-04-14T11:50:43.467Z,51.01
2018-04-14T11:53:11.809Z,48.76
2018-04-14T11:55:40.288Z,48.66
2018-04-14T11:58:08.609Z,49.42
2018-04-14T12:00:36.998Z,50.63
2018-04-14T12:03:05.333Z,50.63
2018-04-14T12:05:33.821Z,49.74
2018-04-14T12:08:02.156Z,48.97
2018-04-14T12:10:34.405Z,50.62
2018-04-14T12:13:02.775Z,50.61
2018-04-14T12:15:31.145Z,50.93
2018-04-14T12:17:59.708Z,47.75
2018-04-14T12:20:28.071Z,47.16
2018-04-14T12:22:56.399Z,48.01
2018-04-14T12:25:25.026Z,46.45
2018-04-14T12:27:54.211Z,46.92
2018-04-14T12:30:22.569Z,47.45
2018-04-14T12:32:50.934Z,48.50
2018-04-14T12:35:19.302Z,47.57
2018-04-14T12:37:48.807Z,46.86
2018-04-14T12:40:17.177Z,46.80
2018-04-14T12:42:45.946Z,45.89
2018-04-14T12:45:14.362Z,47.08
2018-04-14T12:47:43.565Z,46.74
2018-04-14T12:50:13.862Z,44.63
2018-04-14T12:52:42.190Z,45.51
2018-04-14T12:55:10.576Z,47.21
2018-04-14T12:57:39.621Z,46.63
2018-04-14T13:00:08.308Z,47.60
2018-04-14T13:02:36.658Z,45.73
2018-04-14T13:05:05.258Z,44.26
2018-04-14T13:07:34.445Z,43.32
2018-04-14T13:10:03.758Z,43.08
2018-04-14T13:12:33.015Z,43.71
2018-04-14T13:15:02.756Z,45.46
2018-04-14T13:17:32.193Z,44.27
2018-04-14T13:20:01.240Z,44.59
2018-04-14T13:22:30.353Z,44.45
2018-04-14T13:24:59.594Z,45.65
2018-04-14T13:27:28.838Z,44.75
2018-04-14T13:29:58.145Z,45.21
2018-04-14T13:32:27.215Z,44.56
2018-04-14T13:34:55.589Z,44.52
2018-04-14T13:37:24.703Z,45.01
2018-04-14T13:39:54.014Z,45.11
2018-04-14T13:42:22.974Z,45.22
2018-04-14T13:44:51.341Z,44.36
2018-04-14T13:47:20.637Z,43.97
2018-04-14T13:49:48.969Z,45.72
2018-04-14T13:52:17.317Z,45.92
2018-04-14T13:54:45.973Z,45.15
2018-04-14T13:57:15.233Z,45.55
2018-04-14T13:59:43.602Z,45.95
2018-04-14T14:02:13.255Z,45.94
2018-04-14T14:04:41.581Z,44.70
2018-04-14T14:07:10.777Z,43.95
2018-04-14T14:09:39.127Z,44.44
2018-04-14T14:12:08.493Z,43.38
2018-04-14T14:14:37.186Z,42.00
2018-04-14T14:17:05.541Z,41.18
2018-04-14T14:19:34.673Z,40.42
2018-04-14T14:22:03.016Z,39.90
2018-04-14T14:24:31.388Z,40.68
2018-04-14T14:26:59.719Z,41.03
2018-04-14T14:29:28.795Z,39.24
2018-04-14T14:31:58.051Z,39.28
2018-04-14T14:34:27.220Z,39.29
2018-04-14T14:36:55.562Z,40.24
2018-04-14T14:39:24.614Z,40.66
2018-04-14T14:41:52.992Z,41.68
2018-04-14T14:44:24.160Z,40.83
2018-04-14T14:46:53.790Z,41.20
2018-04-14T14:49:22.152Z,40.51
2018-04-14T14:51:50.500Z,39.84
2018-04-14T14:54:18.852Z,39.43
2018-04-14T14:56:48.894Z,39.02
2018-04-14T14:59:17.791Z,39.60
2018-04-14T15:01:47.342Z,39.40
2018-04-14T15:04:15.734Z,40.43
2018-04-14T15:06:44.119Z,39.88
2018-04-14T15:09:12.465Z,39.66
2018-04-14T15:11:41.017Z,38.68
2018-04-14T15:14:09.376Z,39.37
2018-04-14T15:16:37.731Z,38.72
2018-04-14T15:19:08.262Z,38.76
2018-04-14T15:21:36.593Z,39.14
2018-04-14T15:24:05.756Z,40.08
2018-04-14T15:26:34.086Z,40.93
2018-04-14T15:29:02.549Z,40.96
2018-04-14T15:31:30.924Z,40.65
2018-04-14T15:33:59.494Z,40.38
2018-04-14T15:36:28.565Z,40.69
2018-04-14T15:38:57.306Z,41.15
2018-04-14T15:41:25.663Z,41.83
2018-04-14T15:43:54.029Z,42.18
2018-04-14T15:46:23.900Z,41.93
2018-04-14T15:48:52.224Z,42.88
2018-04-14T15:51:20.628Z,42.94
2018-04-14T15:53:49.681Z,42.71
2018-04-14T15:56:18.126Z,42.89
2018-04-14T15:58:46.455Z,42.33
2018-04-14T16:01:15.592Z,42.76
2018-04-14T16:03:45.418Z,42.35
2018-04-14T16:06:14.641Z,43.42
2018-04-14T16:08:43.907Z,43.77
2018-04-14T16:11:12.937Z,44.33
2018-04-14T16:13:41.249Z,44.81
2018-04-14T16:16:09.929Z,44.09
2018-04-14T16:18:38.919Z,43.85
2018-04-14T16:21:07.262Z,44.82
2018-04-14T16:23:35.637Z,44.93
2018-04-14T16:26:04.015Z,45.00
2018-04-14T16:28:32.702Z,44.69
2018-04-14T16:31:01.744Z,44.56
2018-04-14T16:33:31.601Z,45.21
2018-04-14T16:36:00.811Z,45.68
2018-04-14T16:38:29.907Z,46.31
2018-04-14T16:40:59.496Z,46.19
2018-04-14T16:43:28.044Z,46.92
2018-04-14T16:45:57.620Z,46.86
2018-04-14T16:48:26.918Z,46.77
2018-04-14T16:50:56.247Z,46.93
2018-04-14T16:53:25.521Z,47.17
2018-04-14T16:55:53.936Z,47.08
2018-04-14T16:58:22.861Z,47.22
2018-04-14T17:00:52.953Z,47.02
2018-04-14T17:03:21.313Z,47.01
2018-04-14T17:05:49.651Z,47.06
2018-04-14T17:08:18.933Z,47.06
2018-04-14T17:10:47.283Z,47.62
2018-04-14T17:13:15.638Z,47.64
2018-04-14T17:15:44.861Z,47.71
2018-04-14T17:18:14.021Z,48.00
2018-04-14T17:20:43.642Z,47.77
2018-04-14T17:23:12.053Z,47.92
2018-04-14T17:25:41.346Z,47.73
2018-04-14T17:28:10.225Z,47.80
2018-04-14T17:30:39.217Z,48.03
2018-04-14T17:33:08.152Z,47.70
2018-04-14T17:35:36.558Z,47.92
2018-04-14T17:38:05.793Z,48.01
2018-04-14T17:40:34.126Z,48.39
2018-04-14T17:43:03.093Z,48.50
2018-04-14T17:45:31.444Z,48.36
2018-04-14T17:48:00.202Z,48.14
2018-04-14T17:50:29.488Z,48.48
2018-04-14T17:52:57.854Z,48.59
2018-04-14T17:55:26.661Z,48.50
2018-04-14T17:57:56.248Z,48.52
2018-04-14T18:00:25.054Z,48.67
2018-04-14T18:02:53.495Z,48.71
2018-04-14T18:05:22.392Z,49.28
2018-04-14T18:07:51.645Z,49.56
2018-04-14T18:10:19.977Z,53.28
2018-04-14T18:12:50.947Z,53.10
2018-04-14T18:15:21.128Z,50.24
2018-04-14T18:17:50.937Z,49.36
2018-04-14T18:20:19.693Z,48.94
2018-04-14T18:22:48.831Z,48.78
2018-04-14T18:25:17.167Z,49.08
2018-04-14T18:27:45.803Z,49.28
2018-04-14T18:30:15.066Z,50.04
2018-04-14T18:32:43.984Z,52.14
2018-04-14T18:35:13.545Z,53.75
2018-04-14T18:37:41.895Z,53.77
2018-04-14T18:40:10.259Z,53.28
2018-04-14T18:42:39.644Z,53.91
2018-04-14T18:45:07.967Z,53.91
2018-04-14T18:47:38.272Z,54.21
2018-04-14T18:50:07.360Z,52.83
2018-04-14T18:52:37.117Z,54.44
2018-04-14T18:55:05.852Z,54.27
2018-04-14T18:57:34.261Z,55.17
2018-04-14T19:00:04.728Z,55.29
2018-04-14T19:02:33.939Z,55.38
2018-04-14T19:05:02.654Z,55.50
2018-04-14T19:07:34.498Z,55.04
2018-04-14T19:10:03.642Z,55.54
2018-04-14T19:12:33.531Z,56.35
2018-04-14T19:15:01.862Z,56.60
2018-04-14T19:17:30.834Z,57.42
2018-04-14T19:19:59.176Z,57.97
2018-04-14T19:22:27.531Z,57.16
2018-04-14T19:24:56.766Z,56.50
2018-04-14T19:27:25.153Z,55.31
2018-04-14T19:29:56.645Z,58.13
2018-04-14T19:32:25.111Z,59.03
2018-04-14T19:34:53.487Z,59.59
2018-04-14T19:37:21.914Z,59.73
2018-04-14T19:39:50.825Z,59.32
2018-04-14T19:42:20.109Z,58.92
2018-04-14T19:44:48.673Z,58.62
2018-04-14T19:47:18.126Z,58.44
2018-04-14T19:49:46.488Z,59.31
2018-04-14T19:52:16.217Z,59.53
2018-04-14T19:54:45.815Z,59.52
2018-04-14T19:57:15.483Z,59.62
2018-04-14T19:59:43.875Z,60.00
2018-04-14T20:02:12.302Z,60.34
2018-04-14T20:04:40.647Z,60.15
2018-04-14T20:07:11.780Z,60.48
2018-04-14T20:09:40.390Z,60.61
2018-04-14T20:12:09.581Z,60.00
2018-04-14T20:14:39.563Z,59.29
2018-04-14T20:17:09.586Z,58.92
2018-04-14T20:19:37.988Z,59.22
2018-04-14T20:22:06.547Z,59.43
2018-04-14T20:24:36.904Z,59.59
2018-04-14T20:27:05.651Z,60.41
2018-04-14T20:29:34.988Z,61.09
2018-04-14T20:32:03.625Z,61.90
2018-04-14T20:34:31.952Z,61.98
2018-04-14T20:37:01.050Z,62.01
2018-04-14T20:39:29.845Z,62.46
2018-04-14T20:41:59.703Z,62.96
2018-04-14T20:44:29.844Z,63.24
2018-04-14T20:46:58.235Z,63.33
2018-04-14T20:49:26.645Z,62.68
2018-04-14T20:51:55.415Z,62.40
2018-04-14T20:54:26.798Z,62.12
2018-04-14T20:56:56.037Z,61.20
2018-04-14T20:59:24.395Z,62.12
2018-04-14T21:01:52.950Z,62.00
2018-04-14T21:04:23.060Z,63.26
2018-04-14T21:06:52.269Z,63.50
2018-04-14T21:09:20.890Z,63.75
2018-04-14T21:11:50.168Z,64.28
2018-04-14T21:14:19.288Z,64.19
2018-04-14T21:16:49.801Z,64.32
2018-04-14T21:19:18.472Z,64.59
2018-04-14T21:21:46.799Z,64.62
2018-04-14T21:24:16.349Z,64.48
2018-04-14T21:26:46.855Z,64.80
2018-04-14T21:29:16.070Z,65.43
2018-04-14T21:31:45.242Z,65.25
2018-04-14T21:34:13.589Z,65.04
2018-04-14T21:36:42.222Z,65.51
2018-04-14T21:39:11.601Z,65.88
2018-04-14T21:41:40.025Z,65.52
2018-04-14T21:44:09.233Z,65.94
2018-04-14T21:46:39.334Z,66.43
2018-04-14T21:49:08.759Z,66.24
2018-04-14T21:51:38.049Z,66.37
2018-04-14T21:54:06.790Z,66.81
2018-04-14T21:56:35.973Z,66.86
2018-04-14T21:59:04.325Z,67.54
2018-04-14T22:01:33.572Z,67.23
2018-04-14T22:04:02.843Z,66.97
2018-04-14T22:06:31.461Z,67.00
2018-04-14T22:08:59.815Z,67.15
2018-04-14T22:11:28.927Z,67.48
2018-04-14T22:13:57.507Z,67.14
2018-04-14T22:16:26.750Z,67.38
2018-04-14T22:18:55.181Z,67.61
2018-04-14T22:21:23.835Z,67.70
2018-04-14T22:23:52.550Z,67.56
2018-04-14T22:26:21.834Z,67.60
2018-04-14T22:28:51.158Z,66.65
2018-04-14T22:31:21.528Z,67.03
2018-04-14T22:33:50.262Z,67.54
2018-04-14T22:36:18.588Z,67.22
2018-04-14T22:38:47.331Z,67.09
2018-04-14T22:41:16.863Z,67.20
2018-04-14T22:43:45.453Z,67.44
2018-04-14T22:46:14.718Z,67.61
2018-04-14T22:48:43.131Z,67.72
2018-04-14T22:51:12.583Z,68.06
2018-04-14T22:53:40.979Z,68.11
2018-04-14T22:56:10.043Z,68.02
2018-04-14T22:58:38.484Z,68.22
2018-04-14T23:01:07.470Z,68.16
2018-04-14T23:03:36.941Z,67.87
2018-04-14T23:06:09.433Z,68.05
2018-04-14T23:08:39.184Z,68.20
2018-04-14T23:11:07.536Z,68.79
2018-04-14T23:13:35.912Z,68.99
2018-04-14T23:16:05.303Z,68.99
2018-04-14T23:18:34.561Z,68.96
2018-04-14T23:21:02.937Z,68.81
2018-04-14T23:23:31.776Z,68.71
2018-04-14T23:26:01.697Z,68.51
2018-04-14T23:28:30.985Z,68.46
2018-04-14T23:30:59.425Z,68.40
2018-04-14T23:33:28.759Z,69.10
2018-04-14T23:35:57.686Z,68.38
2018-04-14T23:38:26.850Z,68.07
2018-04-14T23:40:56.721Z,67.72
2018-04-14T23:43:25.042Z,68.21
2018-04-14T23:45:53.453Z,67.77
2018-04-14T23:48:21.788Z,67.59
2018-04-14T23:50:50.377Z,67.45
2018-04-14T23:53:19.794Z,67.16
2018-04-14T23:55:49.973Z,67.29
2018-04-14T23:58:19.108Z,66.31
